sensor_id;sensor_type;location;lat;lon;timestamp;temperature;humidity
82183;DHT22;71763;52.220;13.000;2023-11-21T00:01:45;9.60;73.30
82183;DHT22;71763;52.220;13.000;2023-11-21T00:04:11;9.60;73.30
82183;DHT22;71763;52.220;13.000;2023-11-21T00:06:36;9.60;73.20
82183;DHT22;71763;52.220;13.000;2023-11-21T00:09:02;9.60;73.20
82183;DHT22;71763;52.220;13.000;2023-11-21T00:11:28;9.60;73.30
82183;DHT22;71763;52.220;13.000;2023-11-21T00:13:54;9.60;73.20
82183;DHT22;71763;52.220;13.000;2023-11-21T00:16:20;9.60;73.30
82183;DHT22;71763;52.220;13.000;2023-11-21T00:18:45;9.60;73.30
82183;DHT22;71763;52.220;13.000;2023-11-21T00:21:12;9.60;73.30
82183;DHT22;71763;52.220;13.000;2023-11-21T00:23:38;9.60;73.30
82183;DHT22;71763;52.220;13.000;2023-11-21T00:26:03;9.60;73.40
82183;DHT22;71763;52.220;13.000;2023-11-21T00:28:29;9.60;73.40
82183;DHT22;71763;52.220;13.000;2023-11-21T00:30:55;9.60;73.40
82183;DHT22;71763;52.220;13.000;2023-11-21T00:33:20;9.60;73.40
82183;DHT22;71763;52.220;13.000;2023-11-21T00:35:46;9.60;73.40
82183;DHT22;71763;52.220;13.000;2023-11-21T00:38:12;9.60;73.40
82183;DHT22;71763;52.220;13.000;2023-11-21T00:40:41;9.60;73.40
82183;DHT22;71763;52.220;13.000;2023-11-21T00:43:06;9.60;73.50
82183;DHT22;71763;52.220;13.000;2023-11-21T00:45:31;9.50;73.40
82183;DHT22;71763;52.220;13.000;2023-11-21T00:47:57;9.50;73.50
82183;DHT22;71763;52.220;13.000;2023-11-21T00:50:23;9.50;73.50
82183;DHT22;71763;52.220;13.000;2023-11-21T00:52:49;9.50;73.50
82183;DHT22;71763;52.220;13.000;2023-11-21T00:55:16;9.50;73.60
82183;DHT22;71763;52.220;13.000;2023-11-21T00:57:42;9.60;73.70
82183;DHT22;71763;52.220;13.000;2023-11-21T01:00:08;9.60;73.70
82183;DHT22;71763;52.220;13.000;2023-11-21T01:02:43;9.60;73.70
82183;DHT22;71763;52.220;13.000;2023-11-21T01:05:13;9.60;73.70
82183;DHT22;71763;52.220;13.000;2023-11-21T01:07:38;9.50;73.60
82183;DHT22;71763;52.220;13.000;2023-11-21T01:10:05;9.60;73.70
82183;DHT22;71763;52.220;13.000;2023-11-21T01:12:34;9.60;73.70
82183;DHT22;71763;52.220;13.000;2023-11-21T01:14:59;9.60;73.60
82183;DHT22;71763;52.220;13.000;2023-11-21T01:17:26;9.50;73.80
82183;DHT22;71763;52.220;13.000;2023-11-21T01:19:52;9.50;73.80
82183;DHT22;71763;52.220;13.000;2023-11-21T01:22:18;9.50;73.90
82183;DHT22;71763;52.220;13.000;2023-11-21T01:24:45;9.50;73.80
82183;DHT22;71763;52.220;13.000;2023-11-21T01:27:10;9.50;73.80
82183;DHT22;71763;52.220;13.000;2023-11-21T01:29:36;9.50;73.80
82183;DHT22;71763;52.220;13.000;2023-11-21T01:32:02;9.60;73.90
82183;DHT22;71763;52.220;13.000;2023-11-21T01:34:29;9.60;73.80
82183;DHT22;71763;52.220;13.000;2023-11-21T01:36:54;9.60;73.90
82183;DHT22;71763;52.220;13.000;2023-11-21T01:39:21;9.60;73.80
82183;DHT22;71763;52.220;13.000;2023-11-21T01:41:49;9.60;73.80
82183;DHT22;71763;52.220;13.000;2023-11-21T01:44:15;9.60;73.70
82183;DHT22;71763;52.220;13.000;2023-11-21T01:46:42;9.60;73.90
82183;DHT22;71763;52.220;13.000;2023-11-21T01:49:08;9.60;74.00
82183;DHT22;71763;52.220;13.000;2023-11-21T01:51:35;9.60;74.00
82183;DHT22;71763;52.220;13.000;2023-11-21T01:54:02;9.60;73.90
82183;DHT22;71763;52.220;13.000;2023-11-21T01:56:30;9.60;74.50
82183;DHT22;71763;52.220;13.000;2023-11-21T01:58:57;9.60;73.80
82183;DHT22;71763;52.220;13.000;2023-11-21T02:01:22;9.70;73.90
82183;DHT22;71763;52.220;13.000;2023-11-21T02:03:48;9.70;73.90
82183;DHT22;71763;52.220;13.000;2023-11-21T02:06:14;9.70;73.80
82183;DHT22;71763;52.220;13.000;2023-11-21T02:08:39;9.70;73.80
82183;DHT22;71763;52.220;13.000;2023-11-21T02:11:05;9.70;73.70
82183;DHT22;71763;52.220;13.000;2023-11-21T02:13:31;9.70;73.70
82183;DHT22;71763;52.220;13.000;2023-11-21T02:15:57;9.70;73.70
82183;DHT22;71763;52.220;13.000;2023-11-21T02:18:23;9.70;73.80
82183;DHT22;71763;52.220;13.000;2023-11-21T02:20:49;9.70;73.90
82183;DHT22;71763;52.220;13.000;2023-11-21T02:23:14;9.60;73.90
82183;DHT22;71763;52.220;13.000;2023-11-21T02:25:40;9.60;73.90
82183;DHT22;71763;52.220;13.000;2023-11-21T02:28:07;9.50;74.00
82183;DHT22;71763;52.220;13.000;2023-11-21T02:30:33;9.50;74.20
82183;DHT22;71763;52.220;13.000;2023-11-21T02:33:02;9.40;74.30
82183;DHT22;71763;52.220;13.000;2023-11-21T02:35:27;9.40;74.70
82183;DHT22;71763;52.220;13.000;2023-11-21T02:37:53;9.30;74.70
82183;DHT22;71763;52.220;13.000;2023-11-21T02:40:19;9.20;74.60
82183;DHT22;71763;52.220;13.000;2023-11-21T02:42:50;9.10;74.50
82183;DHT22;71763;52.220;13.000;2023-11-21T02:45:20;9.00;74.40
82183;DHT22;71763;52.220;13.000;2023-11-21T02:47:49;9.00;74.40
82183;DHT22;71763;52.220;13.000;2023-11-21T02:50:15;9.00;74.40
82183;DHT22;71763;52.220;13.000;2023-11-21T02:52:40;8.90;74.30
82183;DHT22;71763;52.220;13.000;2023-11-21T02:55:06;8.90;74.30
82183;DHT22;71763;52.220;13.000;2023-11-21T02:57:34;8.90;74.30
82183;DHT22;71763;52.220;13.000;2023-11-21T03:00:00;8.80;74.20
82183;DHT22;71763;52.220;13.000;2023-11-21T03:02:26;8.80;74.20
82183;DHT22;71763;52.220;13.000;2023-11-21T03:04:51;8.70;74.20
82183;DHT22;71763;52.220;13.000;2023-11-21T03:07:17;8.70;74.20
82183;DHT22;71763;52.220;13.000;2023-11-21T03:09:45;8.60;74.10
82183;DHT22;71763;52.220;13.000;2023-11-21T03:12:10;8.50;73.90
82183;DHT22;71763;52.220;13.000;2023-11-21T03:14:37;8.50;73.90
82183;DHT22;71763;52.220;13.000;2023-11-21T03:17:03;8.50;74.00
82183;DHT22;71763;52.220;13.000;2023-11-21T03:19:30;8.40;73.90
82183;DHT22;71763;52.220;13.000;2023-11-21T03:21:55;8.40;73.80
82183;DHT22;71763;52.220;13.000;2023-11-21T03:24:21;8.40;73.90
82183;DHT22;71763;52.220;13.000;2023-11-21T03:26:48;8.40;73.90
82183;DHT22;71763;52.220;13.000;2023-11-21T03:29:14;8.30;73.80
82183;DHT22;71763;52.220;13.000;2023-11-21T03:31:40;8.30;73.80
82183;DHT22;71763;52.220;13.000;2023-11-21T03:34:06;8.30;73.80
82183;DHT22;71763;52.220;13.000;2023-11-21T03:36:32;8.30;73.80
82183;DHT22;71763;52.220;13.000;2023-11-21T03:38:57;8.30;73.80
82183;DHT22;71763;52.220;13.000;2023-11-21T03:41:23;8.30;73.80
82183;DHT22;71763;52.220;13.000;2023-11-21T03:43:48;8.20;73.70
82183;DHT22;71763;52.220;13.000;2023-11-21T03:46:14;8.20;73.70
82183;DHT22;71763;52.220;13.000;2023-11-21T03:48:40;8.20;73.70
82183;DHT22;71763;52.220;13.000;2023-11-21T03:51:05;8.10;73.80
82183;DHT22;71763;52.220;13.000;2023-11-21T03:53:31;8.00;74.20
82183;DHT22;71763;52.220;13.000;2023-11-21T03:55:57;8.00;73.50
82183;DHT22;71763;52.220;13.000;2023-11-21T03:58:23;8.00;73.50
82183;DHT22;71763;52.220;13.000;2023-11-21T04:00:48;8.00;73.60
82183;DHT22;71763;52.220;13.000;2023-11-21T04:03:16;8.00;73.50
82183;DHT22;71763;52.220;13.000;2023-11-21T04:05:42;7.90;73.40
82183;DHT22;71763;52.220;13.000;2023-11-21T04:08:07;7.90;73.40
82183;DHT22;71763;52.220;13.000;2023-11-21T04:10:33;7.90;73.50
82183;DHT22;71763;52.220;13.000;2023-11-21T04:12:59;7.80;73.40
82183;DHT22;71763;52.220;13.000;2023-11-21T04:15:25;7.90;73.50
82183;DHT22;71763;52.220;13.000;2023-11-21T04:17:51;7.80;73.30
82183;DHT22;71763;52.220;13.000;2023-11-21T04:20:17;7.80;73.30
82183;DHT22;71763;52.220;13.000;2023-11-21T04:22:43;7.80;73.40
82183;DHT22;71763;52.220;13.000;2023-11-21T04:25:10;7.80;73.60
82183;DHT22;71763;52.220;13.000;2023-11-21T04:27:38;7.70;73.20
82183;DHT22;71763;52.220;13.000;2023-11-21T04:30:03;7.70;73.90
82183;DHT22;71763;52.220;13.000;2023-11-21T04:32:30;7.70;73.40
82183;DHT22;71763;52.220;13.000;2023-11-21T04:34:56;7.60;73.50
82183;DHT22;71763;52.220;13.000;2023-11-21T04:37:21;7.60;73.50
82183;DHT22;71763;52.220;13.000;2023-11-21T04:39:47;7.60;73.80
82183;DHT22;71763;52.220;13.000;2023-11-21T04:42:12;7.50;73.70
82183;DHT22;71763;52.220;13.000;2023-11-21T04:44:38;7.50;74.20
82183;DHT22;71763;52.220;13.000;2023-11-21T04:47:06;7.50;73.70
82183;DHT22;71763;52.220;13.000;2023-11-21T04:49:31;7.40;74.30
82183;DHT22;71763;52.220;13.000;2023-11-21T04:51:57;7.40;73.60
82183;DHT22;71763;52.220;13.000;2023-11-21T04:54:23;7.40;73.50
82183;DHT22;71763;52.220;13.000;2023-11-21T04:56:48;7.40;73.80
82183;DHT22;71763;52.220;13.000;2023-11-21T04:59:14;7.30;74.20
82183;DHT22;71763;52.220;13.000;2023-11-21T05:01:39;7.30;73.80
82183;DHT22;71763;52.220;13.000;2023-11-21T05:04:05;7.30;74.20
82183;DHT22;71763;52.220;13.000;2023-11-21T05:06:31;7.30;73.70
82183;DHT22;71763;52.220;13.000;2023-11-21T05:08:58;7.30;74.30
82183;DHT22;71763;52.220;13.000;2023-11-21T05:11:28;7.20;74.20
82183;DHT22;71763;52.220;13.000;2023-11-21T05:13:54;7.20;74.10
82183;DHT22;71763;52.220;13.000;2023-11-21T05:16:21;7.20;74.10
82183;DHT22;71763;52.220;13.000;2023-11-21T05:18:47;7.20;73.30
82183;DHT22;71763;52.220;13.000;2023-11-21T05:21:13;7.10;74.00
82183;DHT22;71763;52.220;13.000;2023-11-21T05:23:38;7.10;74.00
82183;DHT22;71763;52.220;13.000;2023-11-21T05:26:04;7.10;73.40
82183;DHT22;71763;52.220;13.000;2023-11-21T05:28:29;7.10;74.00
82183;DHT22;71763;52.220;13.000;2023-11-21T05:30:55;7.10;73.10
82183;DHT22;71763;52.220;13.000;2023-11-21T05:33:21;7.10;73.10
82183;DHT22;71763;52.220;13.000;2023-11-21T05:35:46;7.10;73.90
82183;DHT22;71763;52.220;13.000;2023-11-21T05:38:14;7.10;74.00
82183;DHT22;71763;52.220;13.000;2023-11-21T05:40:39;7.00;73.90
82183;DHT22;71763;52.220;13.000;2023-11-21T05:43:06;7.00;73.80
82183;DHT22;71763;52.220;13.000;2023-11-21T05:45:31;7.00;73.80
82183;DHT22;71763;52.220;13.000;2023-11-21T05:47:58;7.00;73.90
82183;DHT22;71763;52.220;13.000;2023-11-21T05:50:24;7.00;73.90
82183;DHT22;71763;52.220;13.000;2023-11-21T05:52:49;7.00;73.90
82183;DHT22;71763;52.220;13.000;2023-11-21T05:55:15;7.00;73.90
82183;DHT22;71763;52.220;13.000;2023-11-21T05:57:42;6.90;73.70
82183;DHT22;71763;52.220;13.000;2023-11-21T06:00:12;6.90;73.90
82183;DHT22;71763;52.220;13.000;2023-11-21T06:02:48;6.90;73.80
82183;DHT22;71763;52.220;13.000;2023-11-21T06:05:17;6.90;73.80
82183;DHT22;71763;52.220;13.000;2023-11-21T06:07:44;6.90;73.90
82183;DHT22;71763;52.220;13.000;2023-11-21T06:10:11;6.90;73.90
82183;DHT22;71763;52.220;13.000;2023-11-21T06:12:38;6.80;73.80
82183;DHT22;71763;52.220;13.000;2023-11-21T06:15:06;6.90;73.90
82183;DHT22;71763;52.220;13.000;2023-11-21T06:17:34;6.80;73.80
82183;DHT22;71763;52.220;13.000;2023-11-21T06:20:02;6.90;73.80
82183;DHT22;71763;52.220;13.000;2023-11-21T06:22:34;6.90;73.80
82183;DHT22;71763;52.220;13.000;2023-11-21T06:25:00;6.90;73.80
82183;DHT22;71763;52.220;13.000;2023-11-21T06:27:25;6.90;73.70
82183;DHT22;71763;52.220;13.000;2023-11-21T06:29:51;6.90;74.30
82183;DHT22;71763;52.220;13.000;2023-11-21T06:32:17;6.90;73.60
82183;DHT22;71763;52.220;13.000;2023-11-21T06:34:42;6.90;73.60
82183;DHT22;71763;52.220;13.000;2023-11-21T06:37:08;6.90;73.60
82183;DHT22;71763;52.220;13.000;2023-11-21T06:39:34;6.90;73.60
82183;DHT22;71763;52.220;13.000;2023-11-21T06:42:00;6.90;73.70
82183;DHT22;71763;52.220;13.000;2023-11-21T06:44:26;6.90;73.60
82183;DHT22;71763;52.220;13.000;2023-11-21T06:46:51;6.90;73.60
82183;DHT22;71763;52.220;13.000;2023-11-21T06:49:17;6.90;73.70
82183;DHT22;71763;52.220;13.000;2023-11-21T06:51:42;6.90;73.60
82183;DHT22;71763;52.220;13.000;2023-11-21T06:54:08;6.90;73.70
82183;DHT22;71763;52.220;13.000;2023-11-21T06:56:33;6.90;73.60
82183;DHT22;71763;52.220;13.000;2023-11-21T06:58:59;6.90;73.60
82183;DHT22;71763;52.220;13.000;2023-11-21T07:01:24;6.90;73.60
82183;DHT22;71763;52.220;13.000;2023-11-21T07:03:50;6.90;73.60
82183;DHT22;71763;52.220;13.000;2023-11-21T07:06:15;6.80;73.50
82183;DHT22;71763;52.220;13.000;2023-11-21T07:08:42;6.80;73.50
82183;DHT22;71763;52.220;13.000;2023-11-21T07:11:08;6.80;72.50
82183;DHT22;71763;52.220;13.000;2023-11-21T07:13:33;6.80;73.60
82183;DHT22;71763;52.220;13.000;2023-11-21T07:15:59;6.70;73.50
82183;DHT22;71763;52.220;13.000;2023-11-21T07:18:25;6.70;73.60
82183;DHT22;71763;52.220;13.000;2023-11-21T07:20:50;6.70;73.50
82183;DHT22;71763;52.220;13.000;2023-11-21T07:23:17;6.60;73.60
82183;DHT22;71763;52.220;13.000;2023-11-21T07:25:42;6.60;73.60
82183;DHT22;71763;52.220;13.000;2023-11-21T07:28:09;6.60;73.60
82183;DHT22;71763;52.220;13.000;2023-11-21T07:30:34;6.60;73.60
82183;DHT22;71763;52.220;13.000;2023-11-21T07:33:00;6.60;73.50
82183;DHT22;71763;52.220;13.000;2023-11-21T07:35:26;6.60;73.60
82183;DHT22;71763;52.220;13.000;2023-11-21T07:37:52;6.50;73.40
82183;DHT22;71763;52.220;13.000;2023-11-21T07:40:17;6.50;73.40
82183;DHT22;71763;52.220;13.000;2023-11-21T07:42:43;6.50;73.50
82183;DHT22;71763;52.220;13.000;2023-11-21T07:45:09;6.50;73.50
82183;DHT22;71763;52.220;13.000;2023-11-21T07:47:34;6.50;73.40
82183;DHT22;71763;52.220;13.000;2023-11-21T07:50:01;6.50;73.30
82183;DHT22;71763;52.220;13.000;2023-11-21T07:52:28;6.50;73.30
82183;DHT22;71763;52.220;13.000;2023-11-21T07:54:53;6.50;73.40
82183;DHT22;71763;52.220;13.000;2023-11-21T07:57:19;6.50;73.40
82183;DHT22;71763;52.220;13.000;2023-11-21T07:59:44;6.50;73.40
82183;DHT22;71763;52.220;13.000;2023-11-21T08:02:10;6.50;73.30
82183;DHT22;71763;52.220;13.000;2023-11-21T08:04:35;6.50;73.20
82183;DHT22;71763;52.220;13.000;2023-11-21T08:07:01;6.50;73.20
82183;DHT22;71763;52.220;13.000;2023-11-21T08:09:27;6.40;73.20
82183;DHT22;71763;52.220;13.000;2023-11-21T08:11:53;6.40;73.20
82183;DHT22;71763;52.220;13.000;2023-11-21T08:14:18;6.40;73.10
82183;DHT22;71763;52.220;13.000;2023-11-21T08:16:44;6.40;73.10
82183;DHT22;71763;52.220;13.000;2023-11-21T08:19:10;6.40;73.20
82183;DHT22;71763;52.220;13.000;2023-11-21T08:21:36;6.30;73.00
82183;DHT22;71763;52.220;13.000;2023-11-21T08:24:05;6.30;73.10
82183;DHT22;71763;52.220;13.000;2023-11-21T08:26:31;6.40;73.10
82183;DHT22;71763;52.220;13.000;2023-11-21T08:28:56;6.30;73.00
82183;DHT22;71763;52.220;13.000;2023-11-21T08:31:28;6.30;73.70
82183;DHT22;71763;52.220;13.000;2023-11-21T08:33:54;6.30;73.00
82183;DHT22;71763;52.220;13.000;2023-11-21T08:36:22;6.30;73.00
82183;DHT22;71763;52.220;13.000;2023-11-21T08:38:52;6.40;73.00
82183;DHT22;71763;52.220;13.000;2023-11-21T08:41:18;6.40;72.90
82183;DHT22;71763;52.220;13.000;2023-11-21T08:43:50;6.40;72.90
82183;DHT22;71763;52.220;13.000;2023-11-21T08:46:15;6.40;72.90
82183;DHT22;71763;52.220;13.000;2023-11-21T08:48:43;6.40;72.80
82183;DHT22;71763;52.220;13.000;2023-11-21T08:51:10;6.40;72.80
82183;DHT22;71763;52.220;13.000;2023-11-21T08:53:36;6.40;72.90
82183;DHT22;71763;52.220;13.000;2023-11-21T08:56:03;6.40;72.90
82183;DHT22;71763;52.220;13.000;2023-11-21T08:58:30;6.40;72.90
82183;DHT22;71763;52.220;13.000;2023-11-21T09:00:57;6.40;72.80
82183;DHT22;71763;52.220;13.000;2023-11-21T09:03:23;6.40;72.80
82183;DHT22;71763;52.220;13.000;2023-11-21T09:05:48;6.40;72.80
82183;DHT22;71763;52.220;13.000;2023-11-21T09:08:14;6.40;72.70
82183;DHT22;71763;52.220;13.000;2023-11-21T09:10:39;6.40;72.70
82183;DHT22;71763;52.220;13.000;2023-11-21T09:13:05;6.40;72.70
82183;DHT22;71763;52.220;13.000;2023-11-21T09:15:30;6.40;72.60
82183;DHT22;71763;52.220;13.000;2023-11-21T09:17:56;6.40;72.40
82183;DHT22;71763;52.220;13.000;2023-11-21T09:20:22;6.40;72.60
82183;DHT22;71763;52.220;13.000;2023-11-21T09:22:48;6.50;72.40
82183;DHT22;71763;52.220;13.000;2023-11-21T09:25:14;6.50;72.40
82183;DHT22;71763;52.220;13.000;2023-11-21T09:27:40;6.50;72.20
82183;DHT22;71763;52.220;13.000;2023-11-21T09:30:06;6.60;72.20
82183;DHT22;71763;52.220;13.000;2023-11-21T09:32:35;6.60;72.10
82183;DHT22;71763;52.220;13.000;2023-11-21T09:35:03;6.60;72.00
82183;DHT22;71763;52.220;13.000;2023-11-21T09:37:28;6.70;71.90
82183;DHT22;71763;52.220;13.000;2023-11-21T09:39:54;6.70;71.90
82183;DHT22;71763;52.220;13.000;2023-11-21T09:42:25;6.70;71.80
82183;DHT22;71763;52.220;13.000;2023-11-21T09:47:30;6.60;71.90
82183;DHT22;71763;52.220;13.000;2023-11-21T09:49:56;6.60;72.00
82183;DHT22;71763;52.220;13.000;2023-11-21T09:52:25;6.50;72.00
82183;DHT22;71763;52.220;13.000;2023-11-21T09:54:55;6.50;72.00
82183;DHT22;71763;52.220;13.000;2023-11-21T09:57:24;6.50;72.10
82183;DHT22;71763;52.220;13.000;2023-11-21T09:59:54;6.50;72.20
82183;DHT22;71763;52.220;13.000;2023-11-21T10:02:28;6.40;72.20
82183;DHT22;71763;52.220;13.000;2023-11-21T10:04:56;6.40;72.20
82183;DHT22;71763;52.220;13.000;2023-11-21T10:07:22;6.40;72.20
82183;DHT22;71763;52.220;13.000;2023-11-21T10:09:51;6.40;72.50
82183;DHT22;71763;52.220;13.000;2023-11-21T10:12:16;6.40;72.20
82183;DHT22;71763;52.220;13.000;2023-11-21T10:14:42;6.40;72.30
82183;DHT22;71763;52.220;13.000;2023-11-21T10:17:10;6.40;72.20
82183;DHT22;71763;52.220;13.000;2023-11-21T10:19:38;6.40;72.30
82183;DHT22;71763;52.220;13.000;2023-11-21T10:22:04;6.40;72.40
82183;DHT22;71763;52.220;13.000;2023-11-21T10:24:32;6.40;72.30
82183;DHT22;71763;52.220;13.000;2023-11-21T10:26:58;6.30;72.20
82183;DHT22;71763;52.220;13.000;2023-11-21T10:29:23;6.30;72.20
82183;DHT22;71763;52.220;13.000;2023-11-21T10:31:50;6.40;72.40
82183;DHT22;71763;52.220;13.000;2023-11-21T10:34:18;6.30;72.10
82183;DHT22;71763;52.220;13.000;2023-11-21T10:36:44;6.30;72.20
82183;DHT22;71763;52.220;13.000;2023-11-21T10:39:14;6.30;72.20
82183;DHT22;71763;52.220;13.000;2023-11-21T10:41:46;6.30;72.20
82183;DHT22;71763;52.220;13.000;2023-11-21T10:44:16;6.30;72.20
82183;DHT22;71763;52.220;13.000;2023-11-21T10:46:54;6.30;72.10
82183;DHT22;71763;52.220;13.000;2023-11-21T10:49:25;6.20;72.10
82183;DHT22;71763;52.220;13.000;2023-11-21T10:51:55;6.30;72.20
82183;DHT22;71763;52.220;13.000;2023-11-21T10:54:24;6.20;72.10
82183;DHT22;71763;52.220;13.000;2023-11-21T10:56:53;6.20;72.00
82183;DHT22;71763;52.220;13.000;2023-11-21T10:59:22;6.30;72.80
82183;DHT22;71763;52.220;13.000;2023-11-21T11:01:50;6.30;72.10
82183;DHT22;71763;52.220;13.000;2023-11-21T11:04:19;6.30;72.00
82183;DHT22;71763;52.220;13.000;2023-11-21T11:06:47;6.30;72.00
82183;DHT22;71763;52.220;13.000;2023-11-21T11:09:17;6.30;71.90
82183;DHT22;71763;52.220;13.000;2023-11-21T11:11:43;6.40;71.90
82183;DHT22;71763;52.220;13.000;2023-11-21T11:14:12;6.40;72.60
82183;DHT22;71763;52.220;13.000;2023-11-21T11:16:39;6.40;71.90
82183;DHT22;71763;52.220;13.000;2023-11-21T11:19:07;6.40;72.00
82183;DHT22;71763;52.220;13.000;2023-11-21T11:24:18;6.40;72.00
82183;DHT22;71763;52.220;13.000;2023-11-21T11:26:56;6.40;72.00
82183;DHT22;71763;52.220;13.000;2023-11-21T11:29:47;6.30;71.90
82183;DHT22;71763;52.220;13.000;2023-11-21T11:32:58;6.30;71.90
82183;DHT22;71763;52.220;13.000;2023-11-21T11:35:52;6.30;71.90
82183;DHT22;71763;52.220;13.000;2023-11-21T11:38:15;6.30;71.90
82183;DHT22;71763;52.220;13.000;2023-11-21T11:40:45;6.30;71.90
82183;DHT22;71763;52.220;13.000;2023-11-21T11:43:10;6.30;71.90
82183;DHT22;71763;52.220;13.000;2023-11-21T11:45:37;6.30;71.90
82183;DHT22;71763;52.220;13.000;2023-11-21T11:48:17;6.30;71.90
82183;DHT22;71763;52.220;13.000;2023-11-21T11:51:01;6.20;71.90
82183;DHT22;71763;52.220;13.000;2023-11-21T11:53:35;6.30;71.90
82183;DHT22;71763;52.220;13.000;2023-11-21T11:58:55;6.30;71.90
82183;DHT22;71763;52.220;13.000;2023-11-21T12:01:22;6.30;71.90
82183;DHT22;71763;52.220;13.000;2023-11-21T12:06:51;6.20;71.80
82183;DHT22;71763;52.220;13.000;2023-11-21T12:09:23;6.20;71.90
82183;DHT22;71763;52.220;13.000;2023-11-21T12:11:50;6.20;72.00
82183;DHT22;71763;52.220;13.000;2023-11-21T12:14:16;6.20;72.00
82183;DHT22;71763;52.220;13.000;2023-11-21T12:16:42;6.10;71.90
82183;DHT22;71763;52.220;13.000;2023-11-21T12:19:09;6.10;72.00
82183;DHT22;71763;52.220;13.000;2023-11-21T12:21:36;6.10;71.90
82183;DHT22;71763;52.220;13.000;2023-11-21T12:24:02;6.10;72.00
82183;DHT22;71763;52.220;13.000;2023-11-21T12:26:28;6.10;72.00
82183;DHT22;71763;52.220;13.000;2023-11-21T12:28:54;6.10;72.00
82183;DHT22;71763;52.220;13.000;2023-11-21T12:31:23;6.10;72.00
82183;DHT22;71763;52.220;13.000;2023-11-21T12:33:49;6.00;71.90
82183;DHT22;71763;52.220;13.000;2023-11-21T12:36:15;6.00;71.90
82183;DHT22;71763;52.220;13.000;2023-11-21T12:38:42;6.00;71.90
82183;DHT22;71763;52.220;13.000;2023-11-21T12:41:11;6.00;71.90
82183;DHT22;71763;52.220;13.000;2023-11-21T12:43:36;6.00;71.90
82183;DHT22;71763;52.220;13.000;2023-11-21T12:46:13;6.00;71.80
82183;DHT22;71763;52.220;13.000;2023-11-21T12:48:40;6.00;71.70
82183;DHT22;71763;52.220;13.000;2023-11-21T12:51:10;6.00;71.70
82183;DHT22;71763;52.220;13.000;2023-11-21T12:53:40;6.00;71.70
82183;DHT22;71763;52.220;13.000;2023-11-21T12:56:07;6.00;71.60
82183;DHT22;71763;52.220;13.000;2023-11-21T12:58:35;6.00;71.60
82183;DHT22;71763;52.220;13.000;2023-11-21T13:01:01;6.10;71.60
82183;DHT22;71763;52.220;13.000;2023-11-21T13:03:29;6.10;71.50
82183;DHT22;71763;52.220;13.000;2023-11-21T13:05:55;6.10;71.30
82183;DHT22;71763;52.220;13.000;2023-11-21T13:08:23;6.10;71.20
82183;DHT22;71763;52.220;13.000;2023-11-21T13:10:51;6.10;71.20
82183;DHT22;71763;52.220;13.000;2023-11-21T13:13:17;6.10;71.30
82183;DHT22;71763;52.220;13.000;2023-11-21T13:15:53;6.10;72.00
82183;DHT22;71763;52.220;13.000;2023-11-21T13:18:21;6.00;71.40
82183;DHT22;71763;52.220;13.000;2023-11-21T13:20:48;6.00;71.40
82183;DHT22;71763;52.220;13.000;2023-11-21T13:23:15;5.90;71.60
82183;DHT22;71763;52.220;13.000;2023-11-21T13:25:42;5.90;71.60
82183;DHT22;71763;52.220;13.000;2023-11-21T13:28:11;5.80;71.60
82183;DHT22;71763;52.220;13.000;2023-11-21T13:30:37;5.80;71.70
82183;DHT22;71763;52.220;13.000;2023-11-21T13:33:05;5.80;71.80
82183;DHT22;71763;52.220;13.000;2023-11-21T13:35:35;5.70;71.70
82183;DHT22;71763;52.220;13.000;2023-11-21T13:38:09;5.70;71.80
82183;DHT22;71763;52.220;13.000;2023-11-21T13:40:36;5.60;71.90
82183;DHT22;71763;52.220;13.000;2023-11-21T13:43:12;5.60;72.00
82183;DHT22;71763;52.220;13.000;2023-11-21T13:45:43;5.60;72.00
82183;DHT22;71763;52.220;13.000;2023-11-21T13:48:10;5.60;72.00
82183;DHT22;71763;52.220;13.000;2023-11-21T13:50:37;5.60;72.10
82183;DHT22;71763;52.220;13.000;2023-11-21T13:53:03;5.60;72.00
82183;DHT22;71763;52.220;13.000;2023-11-21T13:55:44;5.50;72.00
82183;DHT22;71763;52.220;13.000;2023-11-21T13:58:10;5.50;72.00
82183;DHT22;71763;52.220;13.000;2023-11-21T14:00:42;5.50;71.90
82183;DHT22;71763;52.220;13.000;2023-11-21T14:03:14;5.50;71.90
82183;DHT22;71763;52.220;13.000;2023-11-21T14:06:03;5.60;72.00
82183;DHT22;71763;52.220;13.000;2023-11-21T14:08:34;5.60;72.00
82183;DHT22;71763;52.220;13.000;2023-11-21T14:10:59;5.50;71.80
82183;DHT22;71763;52.220;13.000;2023-11-21T14:13:26;5.60;71.90
82183;DHT22;71763;52.220;13.000;2023-11-21T14:15:51;5.60;71.90
82183;DHT22;71763;52.220;13.000;2023-11-21T14:18:23;5.60;71.90
82183;DHT22;71763;52.220;13.000;2023-11-21T14:20:56;5.50;71.80
82183;DHT22;71763;52.220;13.000;2023-11-21T14:23:21;5.50;71.80
82183;DHT22;71763;52.220;13.000;2023-11-21T14:25:49;5.50;71.90
82183;DHT22;71763;52.220;13.000;2023-11-21T14:28:15;5.50;72.50
82183;DHT22;71763;52.220;13.000;2023-11-21T14:30:41;5.50;71.90
82183;DHT22;71763;52.220;13.000;2023-11-21T14:33:08;5.50;71.90
82183;DHT22;71763;52.220;13.000;2023-11-21T14:35:35;5.50;71.90
82183;DHT22;71763;52.220;13.000;2023-11-21T14:38:01;5.50;71.80
82183;DHT22;71763;52.220;13.000;2023-11-21T14:40:32;5.50;71.90
82183;DHT22;71763;52.220;13.000;2023-11-21T14:43:02;5.40;71.80
82183;DHT22;71763;52.220;13.000;2023-11-21T14:45:31;5.40;71.80
82183;DHT22;71763;52.220;13.000;2023-11-21T14:47:56;5.40;71.90
82183;DHT22;71763;52.220;13.000;2023-11-21T14:50:32;5.40;71.90
82183;DHT22;71763;52.220;13.000;2023-11-21T14:53:03;5.30;71.80
82183;DHT22;71763;52.220;13.000;2023-11-21T14:55:34;5.30;71.80
82183;DHT22;71763;52.220;13.000;2023-11-21T14:58:15;5.20;71.70
82183;DHT22;71763;52.220;13.000;2023-11-21T15:00:45;5.20;72.00
82183;DHT22;71763;52.220;13.000;2023-11-21T15:03:12;5.10;71.90
82183;DHT22;71763;52.220;13.000;2023-11-21T15:06:06;5.10;71.90
82183;DHT22;71763;52.220;13.000;2023-11-21T15:08:56;5.00;71.90
82183;DHT22;71763;52.220;13.000;2023-11-21T15:11:41;5.00;71.90
82183;DHT22;71763;52.220;13.000;2023-11-21T15:14:07;5.00;71.90
82183;DHT22;71763;52.220;13.000;2023-11-21T15:16:35;4.90;72.60
82183;DHT22;71763;52.220;13.000;2023-11-21T15:19:11;4.90;71.90
82183;DHT22;71763;52.220;13.000;2023-11-21T15:21:43;4.90;72.00
82183;DHT22;71763;52.220;13.000;2023-11-21T15:24:09;4.90;71.90
82183;DHT22;71763;52.220;13.000;2023-11-21T15:26:36;4.90;71.90
82183;DHT22;71763;52.220;13.000;2023-11-21T15:29:01;4.90;71.90
82183;DHT22;71763;52.220;13.000;2023-11-21T15:31:27;4.80;71.80
82183;DHT22;71763;52.220;13.000;2023-11-21T15:33:52;4.80;71.80
82183;DHT22;71763;52.220;13.000;2023-11-21T15:36:19;4.80;71.70
82183;DHT22;71763;52.220;13.000;2023-11-21T15:38:45;4.80;71.80
82183;DHT22;71763;52.220;13.000;2023-11-21T15:41:10;4.80;71.80
82183;DHT22;71763;52.220;13.000;2023-11-21T15:43:37;4.80;71.80